• Join FlightAware (Why Join?)
  • Login
  • US Flag 
10:36PM EDT


 

Airport Tracker/Info


-or-


 

Live Flight TrackerFlight Track Log ✈ CTL13 ✈ 30-Apr-2013 ✈ KEYE - KMDW

Flight Track Log - Related Links

Times and Time Zones

All times are in EDT time to prevent confusion due to time zone crossing. See the CTL13 flight status page for this flight to view local times or setup timezone preferences in your user account.

Time Position Orientation Groundspeed Altitude Reporting Facility
EDT Latitude Longitude Course Direction KTS MPH feet Rate Location/Type
08:18PM 39.9167 -86.2833 360° North 155 178 2,800  Level Indianapolis TRACON
08:19PM 39.9547 -86.2919 350° North 148 170 3,800 660 Climbing Chicago Center
08:20PM 39.9900 -86.3219 327° Northwest 158 182 4,300 480 Climbing Chicago Center
08:21PM 40.0228 -86.3647 315° West 164 189 4,800 480 Climbing Chicago Center
08:22PM 40.0622 -86.4150 316° Northwest 167 192 5,300 420 Climbing Chicago Center
08:23PM 40.0956 -86.4586 315° West 168 193 5,700 240 Climbing Chicago Center
08:24PM 40.1292 -86.5031 315° West 169 194 5,900 120 Climbing Chicago Center
08:25PM 40.1650 -86.5500 315° West 175 201 6,000  Climbing Chicago Center
08:26PM 40.2017 -86.5956 317° Northwest 179 206 6,000  Level Chicago Center
08:26PM 40.2142 -86.6153 310° West 181 208 6,000 -120 Level Chicago Center
08:27PM 40.2364 -86.6419 318° Northwest 178 205 5,900  Descending Chicago Center
08:27PM 40.2481 -86.6611 309° West 178 205 6,000 60 Climbing Chicago Center
08:28PM 40.2717 -86.6878 319° Northwest 177 204 6,000  Level Chicago Center
08:28PM 40.2839 -86.7097 306° West 176 203 6,000  Level Chicago Center
08:29PM 40.3125 -86.7411 320° Northwest 177 204 6,000  Level Chicago Center
08:30PM 40.3464 -86.7892 313° West 179 206 6,000  Level Chicago Center
08:31PM 40.3822 -86.8356 315° West 180 207 6,000  Level Chicago Center
08:32PM 40.4169 -86.8811 315° West 177 204 6,000 -60 Level Chicago Center
08:33PM 40.4531 -86.9275 316° Northwest 179 206 5,900  Descending Chicago Center
08:34PM 40.4886 -86.9711 317° Northwest 176 203 6,000  Climbing Chicago Center
08:35PM 40.5283 -87.0264 313° West 177 204 6,000  Level Chicago Center
08:36PM 40.5603 -87.0764 310° West 179 206 6,000  Level Chicago Center
08:37PM 40.6108 -87.0994 341° North 185 213 6,000  Level Chicago Center
08:38PM 40.6569 -87.1253 337° Northwest 181 208 6,100  Climbing Chicago Center
08:39PM 40.7017 -87.1500 337° Northwest 176 203 6,100  Level Chicago Center
08:40PM 40.7492 -87.1736 339° North 182 209 6,100  Level Chicago Center
08:41PM 40.7944 -87.2003 336° Northwest 181 208 6,100  Level Chicago Center
08:43PM 40.8486 -87.2319 336° Northwest 176 203 6,100  Level Chicago Center
08:44PM 40.8956 -87.2558 339° North 182 209 6,100  Level Chicago Center
08:45PM 40.9414 -87.2808 338° Northwest 179 206 6,100 -120 Level Chicago Center
08:46PM 40.9881 -87.3039 340° North 180 207 5,900 -60 Descending Chicago Center
08:47PM 41.0347 -87.3281 339° North 179 206 6,000  Climbing Chicago Center
08:48PM 41.0819 -87.3542 337° Northwest 184 212 6,000 -180 Level Chicago Center
08:49PM 41.1389 -87.3850 338° Northwest 184 212 5,700 -480 Descending Chicago Center
08:50PM 41.1903 -87.4119 338° Northwest 194 223 5,100 -600 Descending Chicago Center
08:51PM 41.2442 -87.4375 340° North 201 231 4,500 -540 Descending Chicago Center
08:52PM 41.2981 -87.4647 339° North 206 237 4,000 -300 Descending Chicago Center
08:53PM 41.3508 -87.4906 340° North 206 237 4,000  Level Chicago Center
08:54PM 41.4106 -87.5189 340° North 199 229 4,000  Level Chicago Center
08:55PM 41.4586 -87.5469 336° Northwest 194 223 4,000  Level Chicago Center
08:56PM 41.5094 -87.5711 340° North 194 223 4,000 -60 Level Chicago Center
08:57PM 41.5583 -87.5942 341° North 197 227 3,900 -60 Descending Chicago Center
08:58PM 41.6083 -87.5619 26° Northeast 199 229 3,900 -240 Level Chicago Center
08:59PM 41.6608 -87.5933 336° Northwest 202 232 3,500 -720 Descending Chicago Center
09:00PM 41.7167 -87.6500 323° Northwest 209 241 2,300 -780 Descending Chicago TRACON
09:01PM 41.7667 -87.6833 334° Northwest 206 237 1,900 -360 Descending Chicago TRACON
09:02PM 41.8167 -87.6667 14° North 204 235 1,700 -300 Descending Chicago TRACON
09:03PM 41.8167 -87.7000 270° West 144 166 1,400 -420 Descending Chicago TRACON
09:04PM 41.8000 -87.7333 236° Southwest 103 119 900 -540 Descending Chicago TRACON
09:06PM 41.7833 -87.7500 228° Southwest  Level FlightAware Approximate